sensor_id;sensor_type;location;lat;lon;timestamp;temperature;humidity
4701;DHT22;8724;51.272;6.554;2023-09-18T00:00:50;22.90;99.90
4701;DHT22;8724;51.272;6.554;2023-09-18T00:03:19;22.90;99.90
4701;DHT22;8724;51.272;6.554;2023-09-18T00:05:47;22.90;99.90
4701;DHT22;8724;51.272;6.554;2023-09-18T00:08:16;22.90;99.90
4701;DHT22;8724;51.272;6.554;2023-09-18T00:10:47;22.90;99.90
4701;DHT22;8724;51.272;6.554;2023-09-18T00:13:15;22.90;99.90
4701;DHT22;8724;51.272;6.554;2023-09-18T00:15:45;22.90;99.90
4701;DHT22;8724;51.272;6.554;2023-09-18T00:18:16;22.90;99.90
4701;DHT22;8724;51.272;6.554;2023-09-18T00:20:44;22.90;99.90
4701;DHT22;8724;51.272;6.554;2023-09-18T00:23:15;23.10;99.90
4701;DHT22;8724;51.272;6.554;2023-09-18T00:25:43;22.90;99.90
4701;DHT22;8724;51.272;6.554;2023-09-18T00:28:11;22.90;99.90
4701;DHT22;8724;51.272;6.554;2023-09-18T00:30:46;22.90;99.90
4701;DHT22;8724;51.272;6.554;2023-09-18T00:33:16;22.90;99.90
4701;DHT22;8724;51.272;6.554;2023-09-18T00:35:47;22.90;99.90
4701;DHT22;8724;51.272;6.554;2023-09-18T00:38:15;22.80;99.90
4701;DHT22;8724;51.272;6.554;2023-09-18T00:40:44;22.80;99.90
4701;DHT22;8724;51.272;6.554;2023-09-18T00:43:12;22.80;99.90
4701;DHT22;8724;51.272;6.554;2023-09-18T00:45:42;22.90;99.90
4701;DHT22;8724;51.272;6.554;2023-09-18T00:48:12;22.80;99.90
4701;DHT22;8724;51.272;6.554;2023-09-18T00:50:44;22.80;99.90
4701;DHT22;8724;51.272;6.554;2023-09-18T00:53:20;22.80;99.90
4701;DHT22;8724;51.272;6.554;2023-09-18T00:55:50;22.80;99.90
4701;DHT22;8724;51.272;6.554;2023-09-18T00:58:20;22.80;99.90
4701;DHT22;8724;51.272;6.554;2023-09-18T01:00:48;22.80;99.90
4701;DHT22;8724;51.272;6.554;2023-09-18T01:03:19;22.80;99.90
4701;DHT22;8724;51.272;6.554;2023-09-18T01:05:49;22.80;99.90
4701;DHT22;8724;51.272;6.554;2023-09-18T01:08:17;22.80;99.90
4701;DHT22;8724;51.272;6.554;2023-09-18T01:10:59;23.00;99.90
4701;DHT22;8724;51.272;6.554;2023-09-18T01:13:34;22.80;99.90
4701;DHT22;8724;51.272;6.554;2023-09-18T01:16:08;22.80;99.90
4701;DHT22;8724;51.272;6.554;2023-09-18T01:18:38;22.80;99.90
4701;DHT22;8724;51.272;6.554;2023-09-18T01:21:08;22.80;99.90
4701;DHT22;8724;51.272;6.554;2023-09-18T01:23:37;22.80;99.90
4701;DHT22;8724;51.272;6.554;2023-09-18T01:26:06;22.80;99.90
4701;DHT22;8724;51.272;6.554;2023-09-18T01:28:34;22.80;99.90
4701;DHT22;8724;51.272;6.554;2023-09-18T01:31:03;22.80;99.90
4701;DHT22;8724;51.272;6.554;2023-09-18T01:33:32;22.80;99.90
4701;DHT22;8724;51.272;6.554;2023-09-18T01:36:02;22.90;99.90
4701;DHT22;8724;51.272;6.554;2023-09-18T01:38:31;22.80;99.90
4701;DHT22;8724;51.272;6.554;2023-09-18T01:41:01;22.80;99.90
4701;DHT22;8724;51.272;6.554;2023-09-18T01:43:30;22.80;99.90
4701;DHT22;8724;51.272;6.554;2023-09-18T01:45:58;22.80;99.90
4701;DHT22;8724;51.272;6.554;2023-09-18T01:48:28;22.80;99.90
4701;DHT22;8724;51.272;6.554;2023-09-18T01:50:58;23.10;99.90
4701;DHT22;8724;51.272;6.554;2023-09-18T01:53:27;22.80;99.90
4701;DHT22;8724;51.272;6.554;2023-09-18T01:55:55;22.80;99.90
4701;DHT22;8724;51.272;6.554;2023-09-18T01:58:24;22.80;99.90
4701;DHT22;8724;51.272;6.554;2023-09-18T02:00:53;22.90;99.90
4701;DHT22;8724;51.272;6.554;2023-09-18T02:03:22;22.80;99.90
4701;DHT22;8724;51.272;6.554;2023-09-18T02:06:11;22.80;99.90
4701;DHT22;8724;51.272;6.554;2023-09-18T02:08:39;22.80;99.90
4701;DHT22;8724;51.272;6.554;2023-09-18T02:11:07;22.90;99.90
4701;DHT22;8724;51.272;6.554;2023-09-18T02:13:37;22.90;99.90
4701;DHT22;8724;51.272;6.554;2023-09-18T02:16:05;22.90;99.90
4701;DHT22;8724;51.272;6.554;2023-09-18T02:18:34;23.20;99.90
4701;DHT22;8724;51.272;6.554;2023-09-18T02:21:02;22.80;99.90
4701;DHT22;8724;51.272;6.554;2023-09-18T02:23:30;22.80;99.90
4701;DHT22;8724;51.272;6.554;2023-09-18T02:25:59;22.90;99.90
4701;DHT22;8724;51.272;6.554;2023-09-18T02:28:31;22.90;99.90
4701;DHT22;8724;51.272;6.554;2023-09-18T02:31:00;22.90;99.90
4701;DHT22;8724;51.272;6.554;2023-09-18T02:33:29;22.80;99.90
4701;DHT22;8724;51.272;6.554;2023-09-18T02:35:58;22.90;99.90
4701;DHT22;8724;51.272;6.554;2023-09-18T02:38:28;22.90;99.90
4701;DHT22;8724;51.272;6.554;2023-09-18T02:40:57;22.90;99.90
4701;DHT22;8724;51.272;6.554;2023-09-18T02:43:26;22.90;99.90
4701;DHT22;8724;51.272;6.554;2023-09-18T02:45:54;23.00;99.90
4701;DHT22;8724;51.272;6.554;2023-09-18T02:48:25;22.90;99.90
4701;DHT22;8724;51.272;6.554;2023-09-18T02:50:53;22.90;99.90
4701;DHT22;8724;51.272;6.554;2023-09-18T02:53:22;22.90;99.90
4701;DHT22;8724;51.272;6.554;2023-09-18T02:55:53;22.90;99.90
4701;DHT22;8724;51.272;6.554;2023-09-18T02:58:22;23.00;99.90
4701;DHT22;8724;51.272;6.554;2023-09-18T03:00:56;22.80;99.90
4701;DHT22;8724;51.272;6.554;2023-09-18T03:03:27;22.80;99.90
4701;DHT22;8724;51.272;6.554;2023-09-18T03:06:00;22.90;99.90
4701;DHT22;8724;51.272;6.554;2023-09-18T03:08:30;22.80;99.90
4701;DHT22;8724;51.272;6.554;2023-09-18T03:10:59;22.80;99.90
4701;DHT22;8724;51.272;6.554;2023-09-18T03:13:28;22.80;99.90
4701;DHT22;8724;51.272;6.554;2023-09-18T03:15:56;22.80;99.90
4701;DHT22;8724;51.272;6.554;2023-09-18T03:18:28;22.80;99.90
4701;DHT22;8724;51.272;6.554;2023-09-18T03:20:57;22.80;99.90
4701;DHT22;8724;51.272;6.554;2023-09-18T03:23:26;22.80;99.90
4701;DHT22;8724;51.272;6.554;2023-09-18T03:25:55;22.80;99.90
4701;DHT22;8724;51.272;6.554;2023-09-18T03:28:24;22.80;99.90
4701;DHT22;8724;51.272;6.554;2023-09-18T03:30:54;23.10;99.90
4701;DHT22;8724;51.272;6.554;2023-09-18T03:33:24;22.90;99.90
4701;DHT22;8724;51.272;6.554;2023-09-18T03:35:53;22.80;99.90
4701;DHT22;8724;51.272;6.554;2023-09-18T03:38:27;22.80;99.90
4701;DHT22;8724;51.272;6.554;2023-09-18T03:40:59;22.80;99.90
4701;DHT22;8724;51.272;6.554;2023-09-18T03:43:28;22.80;99.90
4701;DHT22;8724;51.272;6.554;2023-09-18T03:46:03;23.00;99.90
4701;DHT22;8724;51.272;6.554;2023-09-18T03:48:37;22.80;99.90
4701;DHT22;8724;51.272;6.554;2023-09-18T03:51:07;22.80;99.90
4701;DHT22;8724;51.272;6.554;2023-09-18T03:53:35;22.80;99.90
4701;DHT22;8724;51.272;6.554;2023-09-18T03:56:04;22.80;99.90
4701;DHT22;8724;51.272;6.554;2023-09-18T03:58:32;23.00;99.90
4701;DHT22;8724;51.272;6.554;2023-09-18T04:01:02;22.80;99.90
4701;DHT22;8724;51.272;6.554;2023-09-18T04:03:31;22.80;99.90
4701;DHT22;8724;51.272;6.554;2023-09-18T04:05:59;22.90;99.90
4701;DHT22;8724;51.272;6.554;2023-09-18T04:08:30;22.70;99.90
4701;DHT22;8724;51.272;6.554;2023-09-18T04:11:00;22.80;99.90
4701;DHT22;8724;51.272;6.554;2023-09-18T04:13:31;22.70;99.90
4701;DHT22;8724;51.272;6.554;2023-09-18T04:16:01;22.80;99.90
4701;DHT22;8724;51.272;6.554;2023-09-18T04:18:31;22.70;99.90
4701;DHT22;8724;51.272;6.554;2023-09-18T04:20:59;22.70;99.90
4701;DHT22;8724;51.272;6.554;2023-09-18T04:23:29;22.70;99.90
4701;DHT22;8724;51.272;6.554;2023-09-18T04:25:59;22.70;99.90
4701;DHT22;8724;51.272;6.554;2023-09-18T04:28:38;22.70;99.90
4701;DHT22;8724;51.272;6.554;2023-09-18T04:31:06;22.70;99.90
4701;DHT22;8724;51.272;6.554;2023-09-18T04:33:35;22.70;99.90
4701;DHT22;8724;51.272;6.554;2023-09-18T04:36:04;22.70;99.90
4701;DHT22;8724;51.272;6.554;2023-09-18T04:38:32;22.70;99.90
4701;DHT22;8724;51.272;6.554;2023-09-18T04:41:01;22.60;99.90
4701;DHT22;8724;51.272;6.554;2023-09-18T04:43:30;22.60;99.90
4701;DHT22;8724;51.272;6.554;2023-09-18T04:46:02;22.60;99.90
4701;DHT22;8724;51.272;6.554;2023-09-18T04:48:34;22.70;99.90
4701;DHT22;8724;51.272;6.554;2023-09-18T04:51:05;22.60;99.90
4701;DHT22;8724;51.272;6.554;2023-09-18T04:53:33;22.60;99.90
4701;DHT22;8724;51.272;6.554;2023-09-18T04:56:02;22.60;99.90
4701;DHT22;8724;51.272;6.554;2023-09-18T04:58:34;22.60;99.90
4701;DHT22;8724;51.272;6.554;2023-09-18T05:01:06;22.60;99.90
4701;DHT22;8724;51.272;6.554;2023-09-18T05:03:39;22.60;99.90
4701;DHT22;8724;51.272;6.554;2023-09-18T05:06:10;22.60;99.90
4701;DHT22;8724;51.272;6.554;2023-09-18T05:08:39;22.60;99.90
4701;DHT22;8724;51.272;6.554;2023-09-18T05:11:08;22.60;99.90
4701;DHT22;8724;51.272;6.554;2023-09-18T05:13:39;22.60;99.90
4701;DHT22;8724;51.272;6.554;2023-09-18T05:16:09;22.60;99.90
4701;DHT22;8724;51.272;6.554;2023-09-18T05:18:37;22.60;99.90
4701;DHT22;8724;51.272;6.554;2023-09-18T05:21:09;22.60;99.90
4701;DHT22;8724;51.272;6.554;2023-09-18T05:23:38;22.60;99.90
4701;DHT22;8724;51.272;6.554;2023-09-18T05:26:06;22.50;99.90
4701;DHT22;8724;51.272;6.554;2023-09-18T05:28:34;22.60;99.90
4701;DHT22;8724;51.272;6.554;2023-09-18T05:31:02;22.60;99.90
4701;DHT22;8724;51.272;6.554;2023-09-18T05:33:33;22.60;99.90
4701;DHT22;8724;51.272;6.554;2023-09-18T05:36:01;22.60;99.90
4701;DHT22;8724;51.272;6.554;2023-09-18T05:38:30;22.60;99.90
4701;DHT22;8724;51.272;6.554;2023-09-18T05:40:58;22.60;99.90
4701;DHT22;8724;51.272;6.554;2023-09-18T05:43:27;22.50;99.90
4701;DHT22;8724;51.272;6.554;2023-09-18T05:45:55;22.50;99.90
4701;DHT22;8724;51.272;6.554;2023-09-18T05:48:23;22.60;99.90
4701;DHT22;8724;51.272;6.554;2023-09-18T05:50:53;22.50;99.90
4701;DHT22;8724;51.272;6.554;2023-09-18T05:53:22;22.60;99.90
4701;DHT22;8724;51.272;6.554;2023-09-18T05:55:51;22.50;99.90
4701;DHT22;8724;51.272;6.554;2023-09-18T05:58:19;22.50;99.90
4701;DHT22;8724;51.272;6.554;2023-09-18T06:00:51;22.70;99.90
4701;DHT22;8724;51.272;6.554;2023-09-18T06:03:19;22.50;99.90
4701;DHT22;8724;51.272;6.554;2023-09-18T06:05:48;22.50;99.90
4701;DHT22;8724;51.272;6.554;2023-09-18T06:08:18;22.50;99.90
4701;DHT22;8724;51.272;6.554;2023-09-18T06:10:47;22.50;99.90
4701;DHT22;8724;51.272;6.554;2023-09-18T06:13:15;22.50;99.90
4701;DHT22;8724;51.272;6.554;2023-09-18T06:15:43;22.50;99.90
4701;DHT22;8724;51.272;6.554;2023-09-18T06:18:11;22.50;99.90
4701;DHT22;8724;51.272;6.554;2023-09-18T06:20:40;22.50;99.90
4701;DHT22;8724;51.272;6.554;2023-09-18T06:23:10;22.50;99.90
4701;DHT22;8724;51.272;6.554;2023-09-18T06:25:41;22.50;99.90
4701;DHT22;8724;51.272;6.554;2023-09-18T06:28:09;22.50;99.90
4701;DHT22;8724;51.272;6.554;2023-09-18T06:30:38;22.50;99.90
4701;DHT22;8724;51.272;6.554;2023-09-18T06:33:06;22.50;99.90
4701;DHT22;8724;51.272;6.554;2023-09-18T06:35:35;22.50;99.90
4701;DHT22;8724;51.272;6.554;2023-09-18T06:38:03;22.50;99.90
4701;DHT22;8724;51.272;6.554;2023-09-18T06:40:33;22.50;99.90
4701;DHT22;8724;51.272;6.554;2023-09-18T06:43:03;22.50;99.90
4701;DHT22;8724;51.272;6.554;2023-09-18T06:45:31;22.50;99.90
4701;DHT22;8724;51.272;6.554;2023-09-18T06:48:00;22.50;99.90
4701;DHT22;8724;51.272;6.554;2023-09-18T06:50:28;22.50;99.90
4701;DHT22;8724;51.272;6.554;2023-09-18T06:52:57;22.50;99.90
4701;DHT22;8724;51.272;6.554;2023-09-18T06:55:26;22.50;99.90
4701;DHT22;8724;51.272;6.554;2023-09-18T06:57:54;22.50;99.90
4701;DHT22;8724;51.272;6.554;2023-09-18T07:00:23;22.50;99.90
4701;DHT22;8724;51.272;6.554;2023-09-18T07:02:52;22.50;99.90
4701;DHT22;8724;51.272;6.554;2023-09-18T07:05:20;22.50;99.90
4701;DHT22;8724;51.272;6.554;2023-09-18T07:07:48;22.60;99.90
4701;DHT22;8724;51.272;6.554;2023-09-18T07:10:16;22.50;99.90
4701;DHT22;8724;51.272;6.554;2023-09-18T07:12:45;22.60;99.90
4701;DHT22;8724;51.272;6.554;2023-09-18T07:15:14;22.60;99.90
4701;DHT22;8724;51.272;6.554;2023-09-18T07:17:43;22.50;99.90
4701;DHT22;8724;51.272;6.554;2023-09-18T07:20:12;22.50;99.90
4701;DHT22;8724;51.272;6.554;2023-09-18T07:22:46;22.50;99.90
4701;DHT22;8724;51.272;6.554;2023-09-18T07:25:15;22.50;99.90
4701;DHT22;8724;51.272;6.554;2023-09-18T07:27:43;22.60;99.90
4701;DHT22;8724;51.272;6.554;2023-09-18T07:30:12;22.60;99.90
4701;DHT22;8724;51.272;6.554;2023-09-18T07:32:44;22.50;99.90
4701;DHT22;8724;51.272;6.554;2023-09-18T07:35:12;22.50;99.90
4701;DHT22;8724;51.272;6.554;2023-09-18T07:37:41;22.50;99.90
4701;DHT22;8724;51.272;6.554;2023-09-18T07:40:11;22.50;99.90
4701;DHT22;8724;51.272;6.554;2023-09-18T07:42:39;22.50;99.90
4701;DHT22;8724;51.272;6.554;2023-09-18T07:45:08;22.50;99.90
4701;DHT22;8724;51.272;6.554;2023-09-18T07:47:36;22.50;99.90
4701;DHT22;8724;51.272;6.554;2023-09-18T07:50:07;22.50;99.90
4701;DHT22;8724;51.272;6.554;2023-09-18T07:52:35;22.50;99.90
4701;DHT22;8724;51.272;6.554;2023-09-18T07:55:05;22.50;99.90
4701;DHT22;8724;51.272;6.554;2023-09-18T07:57:33;22.60;99.90
4701;DHT22;8724;51.272;6.554;2023-09-18T08:00:03;22.60;99.90
4701;DHT22;8724;51.272;6.554;2023-09-18T08:02:40;22.50;99.90
4701;DHT22;8724;51.272;6.554;2023-09-18T08:05:10;22.60;99.90
4701;DHT22;8724;51.272;6.554;2023-09-18T08:07:39;22.50;99.90
4701;DHT22;8724;51.272;6.554;2023-09-18T08:10:08;22.50;99.90
4701;DHT22;8724;51.272;6.554;2023-09-18T08:12:36;22.60;99.90
4701;DHT22;8724;51.272;6.554;2023-09-18T08:15:06;22.70;99.90
4701;DHT22;8724;51.272;6.554;2023-09-18T08:17:35;22.60;99.90
4701;DHT22;8724;51.272;6.554;2023-09-18T08:20:04;22.60;99.90
4701;DHT22;8724;51.272;6.554;2023-09-18T08:22:40;22.60;99.90
4701;DHT22;8724;51.272;6.554;2023-09-18T08:25:08;22.60;99.90
4701;DHT22;8724;51.272;6.554;2023-09-18T08:27:38;22.60;99.90
4701;DHT22;8724;51.272;6.554;2023-09-18T08:30:09;22.60;99.90
4701;DHT22;8724;51.272;6.554;2023-09-18T08:32:37;22.60;99.90
4701;DHT22;8724;51.272;6.554;2023-09-18T08:35:08;22.60;99.90
4701;DHT22;8724;51.272;6.554;2023-09-18T08:37:36;22.60;99.90
4701;DHT22;8724;51.272;6.554;2023-09-18T08:40:09;22.60;99.90
4701;DHT22;8724;51.272;6.554;2023-09-18T08:42:39;22.60;99.90
4701;DHT22;8724;51.272;6.554;2023-09-18T08:45:09;22.60;99.90
4701;DHT22;8724;51.272;6.554;2023-09-18T08:47:39;22.60;99.90
4701;DHT22;8724;51.272;6.554;2023-09-18T08:50:09;22.60;99.90
4701;DHT22;8724;51.272;6.554;2023-09-18T08:52:37;22.60;99.90
4701;DHT22;8724;51.272;6.554;2023-09-18T08:55:08;22.60;99.90
4701;DHT22;8724;51.272;6.554;2023-09-18T08:57:38;22.60;99.90
4701;DHT22;8724;51.272;6.554;2023-09-18T09:00:08;22.60;99.90
4701;DHT22;8724;51.272;6.554;2023-09-18T09:02:38;22.60;99.90
4701;DHT22;8724;51.272;6.554;2023-09-18T09:05:07;22.60;99.90
4701;DHT22;8724;51.272;6.554;2023-09-18T09:07:35;22.60;99.90
4701;DHT22;8724;51.272;6.554;2023-09-18T09:10:03;22.60;99.90
4701;DHT22;8724;51.272;6.554;2023-09-18T09:12:52;22.60;99.90
4701;DHT22;8724;51.272;6.554;2023-09-18T09:15:26;22.60;99.90
4701;DHT22;8724;51.272;6.554;2023-09-18T09:18:03;22.60;99.90
4701;DHT22;8724;51.272;6.554;2023-09-18T09:20:33;22.60;99.90
4701;DHT22;8724;51.272;6.554;2023-09-18T09:23:04;22.60;99.90
4701;DHT22;8724;51.272;6.554;2023-09-18T09:25:33;22.60;99.90
4701;DHT22;8724;51.272;6.554;2023-09-18T09:28:05;22.60;99.90
4701;DHT22;8724;51.272;6.554;2023-09-18T09:30:35;22.60;99.90
4701;DHT22;8724;51.272;6.554;2023-09-18T09:33:05;22.60;99.90
4701;DHT22;8724;51.272;6.554;2023-09-18T09:35:36;22.60;99.90
4701;DHT22;8724;51.272;6.554;2023-09-18T09:38:08;22.60;99.90
4701;DHT22;8724;51.272;6.554;2023-09-18T09:40:39;22.60;99.90
4701;DHT22;8724;51.272;6.554;2023-09-18T09:43:11;22.60;99.90
4701;DHT22;8724;51.272;6.554;2023-09-18T09:45:41;22.60;99.90
4701;DHT22;8724;51.272;6.554;2023-09-18T09:48:10;22.60;99.90
4701;DHT22;8724;51.272;6.554;2023-09-18T09:50:44;22.60;99.90
4701;DHT22;8724;51.272;6.554;2023-09-18T09:53:14;22.60;99.90
4701;DHT22;8724;51.272;6.554;2023-09-18T09:55:42;22.60;99.90
4701;DHT22;8724;51.272;6.554;2023-09-18T09:58:12;22.70;99.90
4701;DHT22;8724;51.272;6.554;2023-09-18T10:00:43;22.60;99.90
4701;DHT22;8724;51.272;6.554;2023-09-18T10:03:13;22.60;99.90
4701;DHT22;8724;51.272;6.554;2023-09-18T10:05:44;22.60;99.90
4701;DHT22;8724;51.272;6.554;2023-09-18T10:08:17;22.60;99.90
4701;DHT22;8724;51.272;6.554;2023-09-18T10:10:47;22.60;99.90
4701;DHT22;8724;51.272;6.554;2023-09-18T10:13:18;22.60;99.90
4701;DHT22;8724;51.272;6.554;2023-09-18T10:15:50;22.60;99.90
4701;DHT22;8724;51.272;6.554;2023-09-18T10:18:28;22.60;99.90
4701;DHT22;8724;51.272;6.554;2023-09-18T10:21:03;22.70;99.90
4701;DHT22;8724;51.272;6.554;2023-09-18T10:23:46;22.70;99.90
4701;DHT22;8724;51.272;6.554;2023-09-18T10:26:23;22.70;99.90
4701;DHT22;8724;51.272;6.554;2023-09-18T10:28:54;22.70;99.90
4701;DHT22;8724;51.272;6.554;2023-09-18T10:31:27;22.70;99.90
4701;DHT22;8724;51.272;6.554;2023-09-18T10:33:57;22.80;99.90
4701;DHT22;8724;51.272;6.554;2023-09-18T10:36:27;22.70;99.90
4701;DHT22;8724;51.272;6.554;2023-09-18T10:39:00;22.80;99.90
4701;DHT22;8724;51.272;6.554;2023-09-18T10:41:34;22.80;99.90
4701;DHT22;8724;51.272;6.554;2023-09-18T10:44:05;22.80;99.90
4701;DHT22;8724;51.272;6.554;2023-09-18T10:46:34;22.80;99.90
4701;DHT22;8724;51.272;6.554;2023-09-18T10:49:02;22.80;99.90
4701;DHT22;8724;51.272;6.554;2023-09-18T10:51:32;22.90;99.90
4701;DHT22;8724;51.272;6.554;2023-09-18T10:54:01;22.80;99.90
4701;DHT22;8724;51.272;6.554;2023-09-18T10:56:30;22.80;99.90
4701;DHT22;8724;51.272;6.554;2023-09-18T10:59:00;22.90;99.90
4701;DHT22;8724;51.272;6.554;2023-09-18T11:01:30;22.90;99.90
4701;DHT22;8724;51.272;6.554;2023-09-18T11:04:01;22.90;99.90
4701;DHT22;8724;51.272;6.554;2023-09-18T11:06:30;22.90;99.90
4701;DHT22;8724;51.272;6.554;2023-09-18T11:09:03;22.90;99.90
4701;DHT22;8724;51.272;6.554;2023-09-18T11:11:31;22.90;99.90
4701;DHT22;8724;51.272;6.554;2023-09-18T11:14:02;22.90;99.90
4701;DHT22;8724;51.272;6.554;2023-09-18T11:16:39;23.00;99.90
4701;DHT22;8724;51.272;6.554;2023-09-18T11:19:10;23.00;99.90
4701;DHT22;8724;51.272;6.554;2023-09-18T11:21:39;23.00;99.90
4701;DHT22;8724;51.272;6.554;2023-09-18T11:24:14;23.10;99.90
4701;DHT22;8724;51.272;6.554;2023-09-18T11:26:45;23.10;99.90
4701;DHT22;8724;51.272;6.554;2023-09-18T11:29:16;23.10;99.90
4701;DHT22;8724;51.272;6.554;2023-09-18T11:31:49;23.10;99.90
4701;DHT22;8724;51.272;6.554;2023-09-18T11:34:23;23.10;99.90
4701;DHT22;8724;51.272;6.554;2023-09-18T11:36:53;23.20;99.90
4701;DHT22;8724;51.272;6.554;2023-09-18T11:39:36;23.20;99.90
4701;DHT22;8724;51.272;6.554;2023-09-18T11:42:09;23.20;99.90
4701;DHT22;8724;51.272;6.554;2023-09-18T11:44:38;23.20;99.90
4701;DHT22;8724;51.272;6.554;2023-09-18T11:47:16;23.20;99.90
4701;DHT22;8724;51.272;6.554;2023-09-18T11:49:52;23.30;99.90
4701;DHT22;8724;51.272;6.554;2023-09-18T11:52:27;23.20;99.90
4701;DHT22;8724;51.272;6.554;2023-09-18T11:54:57;23.30;99.90
4701;DHT22;8724;51.272;6.554;2023-09-18T11:57:26;23.30;99.90
4701;DHT22;8724;51.272;6.554;2023-09-18T11:59:56;23.30;99.90
4701;DHT22;8724;51.272;6.554;2023-09-18T12:02:39;23.30;99.90
4701;DHT22;8724;51.272;6.554;2023-09-18T12:05:14;23.30;99.90
4701;DHT22;8724;51.272;6.554;2023-09-18T12:07:44;23.40;99.90
4701;DHT22;8724;51.272;6.554;2023-09-18T12:10:15;23.40;99.90
4701;DHT22;8724;51.272;6.554;2023-09-18T12:12:44;23.20;99.90
4701;DHT22;8724;51.272;6.554;2023-09-18T12:15:13;23.40;99.90
4701;DHT22;8724;51.272;6.554;2023-09-18T12:17:43;23.50;99.90
4701;DHT22;8724;51.272;6.554;2023-09-18T12:20:16;23.50;99.90
4701;DHT22;8724;51.272;6.554;2023-09-18T12:22:47;23.50;99.90
4701;DHT22;8724;51.272;6.554;2023-09-18T12:25:16;23.50;99.90
4701;DHT22;8724;51.272;6.554;2023-09-18T12:27:45;23.50;99.90
4701;DHT22;8724;51.272;6.554;2023-09-18T12:30:13;23.50;99.90
4701;DHT22;8724;51.272;6.554;2023-09-18T12:32:49;23.60;99.90
4701;DHT22;8724;51.272;6.554;2023-09-18T12:35:17;23.50;99.90
4701;DHT22;8724;51.272;6.554;2023-09-18T12:37:46;23.60;99.90
4701;DHT22;8724;51.272;6.554;2023-09-18T12:40:22;23.60;99.90
4701;DHT22;8724;51.272;6.554;2023-09-18T12:42:51;23.60;99.90
4701;DHT22;8724;51.272;6.554;2023-09-18T12:45:20;23.70;99.90
4701;DHT22;8724;51.272;6.554;2023-09-18T12:47:50;23.70;99.90
4701;DHT22;8724;51.272;6.554;2023-09-18T12:50:19;23.90;99.90
4701;DHT22;8724;51.272;6.554;2023-09-18T12:52:47;23.70;99.90
4701;DHT22;8724;51.272;6.554;2023-09-18T12:55:22;23.80;99.90
4701;DHT22;8724;51.272;6.554;2023-09-18T12:57:52;23.80;99.90
4701;DHT22;8724;51.272;6.554;2023-09-18T13:00:21;23.80;99.90
4701;DHT22;8724;51.272;6.554;2023-09-18T13:02:52;23.90;99.90
4701;DHT22;8724;51.272;6.554;2023-09-18T13:05:23;23.90;99.90
4701;DHT22;8724;51.272;6.554;2023-09-18T13:07:53;24.00;99.90
4701;DHT22;8724;51.272;6.554;2023-09-18T13:10:22;24.00;99.90
4701;DHT22;8724;51.272;6.554;2023-09-18T13:12:55;24.00;99.90
4701;DHT22;8724;51.272;6.554;2023-09-18T13:15:25;24.00;99.90
4701;DHT22;8724;51.272;6.554;2023-09-18T13:17:57;24.10;99.90
4701;DHT22;8724;51.272;6.554;2023-09-18T13:20:27;24.10;99.90
4701;DHT22;8724;51.272;6.554;2023-09-18T13:22:58;24.10;99.90
4701;DHT22;8724;51.272;6.554;2023-09-18T13:25:30;24.10;99.90
4701;DHT22;8724;51.272;6.554;2023-09-18T13:27:59;24.20;99.90
4701;DHT22;8724;51.272;6.554;2023-09-18T13:30:27;24.30;99.90
4701;DHT22;8724;51.272;6.554;2023-09-18T13:33:03;24.30;99.90
4701;DHT22;8724;51.272;6.554;2023-09-18T13:35:33;24.30;99.90
4701;DHT22;8724;51.272;6.554;2023-09-18T13:38:02;24.30;99.90
4701;DHT22;8724;51.272;6.554;2023-09-18T13:40:32;24.30;99.90
4701;DHT22;8724;51.272;6.554;2023-09-18T13:43:03;24.40;99.90
4701;DHT22;8724;51.272;6.554;2023-09-18T13:45:32;24.40;99.90
4701;DHT22;8724;51.272;6.554;2023-09-18T13:48:03;24.40;99.90
4701;DHT22;8724;51.272;6.554;2023-09-18T13:50:32;24.50;99.90
4701;DHT22;8724;51.272;6.554;2023-09-18T13:53:00;24.40;99.90
4701;DHT22;8724;51.272;6.554;2023-09-18T13:55:30;24.50;99.90
4701;DHT22;8724;51.272;6.554;2023-09-18T13:57:59;24.50;99.90
4701;DHT22;8724;51.272;6.554;2023-09-18T14:00:30;24.50;99.90
4701;DHT22;8724;51.272;6.554;2023-09-18T14:02:58;24.60;99.90
4701;DHT22;8724;51.272;6.554;2023-09-18T14:05:28;24.60;99.90
4701;DHT22;8724;51.272;6.554;2023-09-18T14:07:57;24.70;99.90
4701;DHT22;8724;51.272;6.554;2023-09-18T14:10:27;24.60;99.90
4701;DHT22;8724;51.272;6.554;2023-09-18T14:12:56;24.70;99.90
4701;DHT22;8724;51.272;6.554;2023-09-18T14:15:24;24.70;99.90
4701;DHT22;8724;51.272;6.554;2023-09-18T14:17:52;24.70;99.90
4701;DHT22;8724;51.272;6.554;2023-09-18T14:20:21;24.70;99.90
4701;DHT22;8724;51.272;6.554;2023-09-18T14:22:50;24.70;99.90
4701;DHT22;8724;51.272;6.554;2023-09-18T14:25:19;24.70;99.90
4701;DHT22;8724;51.272;6.554;2023-09-18T14:27:49;24.70;99.90
4701;DHT22;8724;51.272;6.554;2023-09-18T14:30:17;24.70;99.90
4701;DHT22;8724;51.272;6.554;2023-09-18T14:32:46;24.80;99.90
4701;DHT22;8724;51.272;6.554;2023-09-18T14:35:15;24.80;99.90
4701;DHT22;8724;51.272;6.554;2023-09-18T14:37:43;24.80;99.90
4701;DHT22;8724;51.272;6.554;2023-09-18T14:40:12;24.80;99.90
4701;DHT22;8724;51.272;6.554;2023-09-18T14:42:41;24.80;99.90
4701;DHT22;8724;51.272;6.554;2023-09-18T14:45:10;24.80;99.90
4701;DHT22;8724;51.272;6.554;2023-09-18T14:47:39;24.80;99.90
4701;DHT22;8724;51.272;6.554;2023-09-18T14:50:08;24.80;99.90
4701;DHT22;8724;51.272;6.554;2023-09-18T14:52:36;24.90;99.90
4701;DHT22;8724;51.272;6.554;2023-09-18T14:55:04;24.90;99.90
4701;DHT22;8724;51.272;6.554;2023-09-18T14:57:34;24.90;99.90
4701;DHT22;8724;51.272;6.554;2023-09-18T15:00:03;24.90;99.90
4701;DHT22;8724;51.272;6.554;2023-09-18T15:02:33;24.90;99.90
4701;DHT22;8724;51.272;6.554;2023-09-18T15:05:02;24.90;99.90
4701;DHT22;8724;51.272;6.554;2023-09-18T15:07:35;24.90;99.90
4701;DHT22;8724;51.272;6.554;2023-09-18T15:10:04;25.00;99.90
4701;DHT22;8724;51.272;6.554;2023-09-18T15:12:34;25.00;99.90
4701;DHT22;8724;51.272;6.554;2023-09-18T15:15:03;25.00;99.90
4701;DHT22;8724;51.272;6.554;2023-09-18T15:17:31;25.10;99.90
4701;DHT22;8724;51.272;6.554;2023-09-18T15:20:00;25.10;99.90
4701;DHT22;8724;51.272;6.554;2023-09-18T15:22:30;25.10;99.90
4701;DHT22;8724;51.272;6.554;2023-09-18T15:24:58;25.10;99.90
4701;DHT22;8724;51.272;6.554;2023-09-18T15:27:28;25.10;99.90
4701;DHT22;8724;51.272;6.554;2023-09-18T15:29:57;25.10;99.90
4701;DHT22;8724;51.272;6.554;2023-09-18T15:32:26;25.10;99.90
4701;DHT22;8724;51.272;6.554;2023-09-18T15:34:55;25.10;99.90
4701;DHT22;8724;51.272;6.554;2023-09-18T15:37:23;25.50;99.90
4701;DHT22;8724;51.272;6.554;2023-09-18T15:39:51;25.10;99.90
4701;DHT22;8724;51.272;6.554;2023-09-18T15:42:20;25.10;99.90
4701;DHT22;8724;51.272;6.554;2023-09-18T15:44:48;25.10;99.90
4701;DHT22;8724;51.272;6.554;2023-09-18T15:47:18;25.10;99.90
4701;DHT22;8724;51.272;6.554;2023-09-18T15:49:46;25.20;99.90
4701;DHT22;8724;51.272;6.554;2023-09-18T15:52:14;25.20;99.90
4701;DHT22;8724;51.272;6.554;2023-09-18T15:54:42;25.20;99.90
4701;DHT22;8724;51.272;6.554;2023-09-18T15:57:11;25.20;99.90
4701;DHT22;8724;51.272;6.554;2023-09-18T15:59:41;25.20;99.90
4701;DHT22;8724;51.272;6.554;2023-09-18T16:02:09;25.20;99.90
4701;DHT22;8724;51.272;6.554;2023-09-18T16:04:41;25.20;99.90
4701;DHT22;8724;51.272;6.554;2023-09-18T16:07:10;25.20;99.90
4701;DHT22;8724;51.272;6.554;2023-09-18T16:09:40;25.20;99.90
4701;DHT22;8724;51.272;6.554;2023-09-18T16:12:09;25.20;99.90
4701;DHT22;8724;51.272;6.554;2023-09-18T16:14:37;25.20;99.90
4701;DHT22;8724;51.272;6.554;2023-09-18T16:17:05;25.20;99.90
4701;DHT22;8724;51.272;6.554;2023-09-18T16:19:34;25.20;99.90